Los Angeles, California
Traffic Map
Current Weather Conditions
Los Angeles, California
Clear
Clear
26°
Feels Like: 27°
Wind Chill: 26° Ceiling: Unl
Heat Index: 27° Visibility: 10mi
Dew Point: 17° Wind: 3mph
Humidity: 56% Direction: ° ()
Pressure: 29.85in Gusts: 0mph
Raw Report DataKCQT 312347Z AUTO VRB03KT 10SM CLR 26/17 A2985 RMK AO2 SLP105 T02610167 10294 20256 56009
Traffic Incident Summary
Active as of:
Severity:
Category:
InformationThere was an issue retrieving the traffic information for this location. Please try a different location or try again shortly.
Advertisements
Track Severe Weather on mobile